Time;durP1;ratioP1;P1;durP2;ratioP2;P2;SDS_P1;SDS_P2;PMS_P1;PMS_P2;Temp;Humidity;BMP_temperature;BMP_pressure;BME280_temperature;BME280_humidity;BME280_pressure;Samples;Min_cycle;Max_cycle;Signal;HPM_P1;HPM_P2
2023/09/26 00:00:33;;;;;;;12.05;7.45;;;20.60;99.90;;;;;;4871137;29;20061;-78
2023/09/26 00:03:01;;;;;;;10.38;7.45;;;20.70;99.90;;;;;;4870304;29;20507;-81
2023/09/26 00:05:35;;;;;;;12.38;8.25;;;20.70;99.90;;;;;;4872742;29;20329;-80
2023/09/26 00:08:08;;;;;;;12.00;7.80;;;20.70;99.90;;;;;;4873830;29;20144;-79
2023/09/26 00:10:53;;;;;;;18.88;7.30;;;20.70;99.90;;;;;;4868707;29;20036;-80
2023/09/26 00:13:38;;;;;;;10.98;6.85;;;20.70;99.90;;;;;;4863795;29;20448;-78
2023/09/26 00:16:06;;;;;;;9.90;7.35;;;20.70;99.90;;;;;;4873269;29;21569;-78
2023/09/26 00:18:34;;;;;;;12.25;7.45;;;20.60;99.90;;;;;;4873231;29;20064;-80
2023/09/26 00:21:01;;;;;;;12.35;7.50;;;20.60;99.90;;;;;;4865387;29;20124;-79
2023/09/26 00:23:30;;;;;;;11.20;7.38;;;20.60;99.90;;;;;;4867580;29;20037;-79
2023/09/26 00:25:58;;;;;;;12.00;7.20;;;20.60;99.90;;;;;;4874694;29;20295;-79
2023/09/26 00:28:26;;;;;;;11.80;7.43;;;20.60;99.90;;;;;;4863980;29;20045;-79
2023/09/26 00:30:58;;;;;;;11.23;7.32;;;20.60;99.90;;;;;;4857944;29;20430;-82
2023/09/26 00:33:27;;;;;;;14.05;7.43;;;20.50;99.90;;;;;;4869989;29;20037;-78
2023/09/26 00:35:58;;;;;;;9.48;6.97;;;20.50;99.90;;;;;;4867215;29;20052;-79
2023/09/26 00:38:26;;;;;;;10.63;7.72;;;20.60;99.90;;;;;;4869286;29;20666;-80
2023/09/26 00:40:54;;;;;;;9.55;6.82;;;20.50;99.90;;;;;;4853833;29;20518;-80
2023/09/26 00:43:24;;;;;;;11.55;7.75;;;20.40;99.90;;;;;;4869739;29;20053;-79
2023/09/26 00:45:54;;;;;;;11.73;7.32;;;20.40;99.90;;;;;;4856268;29;20045;-80
2023/09/26 00:48:26;;;;;;;11.48;7.15;;;20.30;99.90;;;;;;4851260;29;20448;-77
2023/09/26 00:50:54;;;;;;;11.70;7.70;;;20.20;99.90;;;;;;4854723;29;20051;-78
2023/09/26 00:53:23;;;;;;;11.35;7.55;;;20.10;99.90;;;;;;4858014;29;20406;-79
2023/09/26 00:55:57;;;;;;;9.48;6.85;;;20.10;99.90;;;;;;4855532;29;20132;-81
2023/09/26 00:58:25;;;;;;;11.63;6.65;;;20.20;99.90;;;;;;4872387;29;20949;-78
2023/09/26 01:00:55;;;;;;;12.07;6.72;;;20.30;99.90;;;;;;4856246;29;20072;-78
2023/09/26 01:03:23;;;;;;;9.63;7.10;;;20.40;99.90;;;;;;4851878;29;20060;-75
2023/09/26 01:05:51;;;;;;;9.35;7.40;;;20.40;99.90;;;;;;4857898;29;20132;-77
2023/09/26 01:08:18;;;;;;;11.13;7.20;;;20.10;99.90;;;;;;4855602;29;20119;-78
2023/09/26 01:10:45;;;;;;;10.57;6.70;;;20.00;99.90;;;;;;4852227;29;20053;-78
2023/09/26 01:13:13;;;;;;;12.27;6.80;;;20.20;99.90;;;;;;4856035;29;20034;-78
2023/09/26 01:15:41;;;;;;;9.40;6.82;;;20.30;99.90;;;;;;4852391;29;20414;-78
2023/09/26 01:18:10;;;;;;;11.43;7.00;;;20.20;99.90;;;;;;4856402;29;20042;-76
2023/09/26 01:20:43;;;;;;;11.35;7.57;;;20.00;99.90;;;;;;4856592;29;20052;-75
2023/09/26 01:23:12;;;;;;;14.43;7.70;;;20.00;99.90;;;;;;4855401;29;20132;-77
2023/09/26 01:25:43;;;;;;;9.73;6.97;;;20.00;99.90;;;;;;4851588;29;20072;-78
2023/09/26 01:28:16;;;;;;;11.75;7.10;;;20.10;99.90;;;;;;4871618;29;20053;-78
2023/09/26 01:30:44;;;;;;;12.48;7.45;;;20.00;99.90;;;;;;4866448;29;20049;-78
2023/09/26 01:33:12;;;;;;;9.50;7.03;;;20.10;99.90;;;;;;4865692;29;20046;-78
2023/09/26 01:35:40;;;;;;;14.18;8.13;;;20.00;99.90;;;;;;4871329;29;20589;-78
2023/09/26 01:38:07;;;;;;;12.75;7.68;;;20.00;99.90;;;;;;4872540;29;20167;-77
2023/09/26 01:40:34;;;;;;;15.18;7.38;;;19.90;99.90;;;;;;4869141;29;20057;-78
2023/09/26 01:43:02;;;;;;;12.43;7.22;;;19.90;99.90;;;;;;4863577;29;20140;-77
2023/09/26 01:45:29;;;;;;;13.43;7.50;;;19.80;99.90;;;;;;4852887;29;20042;-77
2023/09/26 01:47:58;;;;;;;11.38;6.80;;;19.80;99.90;;;;;;4853777;29;20038;-77
2023/09/26 01:50:25;;;;;;;15.85;7.75;;;19.80;99.90;;;;;;4869059;29;20426;-77
2023/09/26 01:52:53;;;;;;;10.52;7.15;;;19.80;99.90;;;;;;4857085;29;20042;-77
2023/09/26 01:55:21;;;;;;;10.68;7.38;;;19.70;99.90;;;;;;4851360;29;20034;-79
2023/09/26 01:57:50;;;;;;;12.98;7.25;;;19.70;99.90;;;;;;4865126;29;20056;-76
2023/09/26 02:00:19;;;;;;;14.27;7.95;;;19.80;99.90;;;;;;4855185;29;20065;-77
2023/09/26 02:02:51;;;;;;;11.80;7.03;;;19.70;99.90;;;;;;4853596;29;20060;-78
2023/09/26 02:05:20;;;;;;;9.98;7.28;;;19.60;99.90;;;;;;4856489;29;20046;-77
2023/09/26 02:07:48;;;;;;;13.23;7.68;;;19.50;99.90;;;;;;4871542;29;20401;-76
2023/09/26 02:10:17;;;;;;;11.13;7.85;;;19.60;99.90;;;;;;4871213;29;20044;-79
2023/09/26 02:12:50;;;;;;;10.53;7.57;;;19.70;99.90;;;;;;4856106;29;20042;-79
2023/09/26 02:15:19;;;;;;;13.02;7.65;;;19.50;99.90;;;;;;4868155;29;20289;-77
2023/09/26 02:17:46;;;;;;;11.48;7.78;;;19.50;99.90;;;;;;4853725;29;20398;-79
2023/09/26 02:20:16;;;;;;;13.73;8.18;;;19.30;99.90;;;;;;4856421;29;20121;-79
2023/09/26 02:22:46;;;;;;;11.17;7.93;;;19.30;99.90;;;;;;4868672;29;20459;-79
2023/09/26 02:25:14;;;;;;;11.15;7.32;;;19.20;99.90;;;;;;4873813;29;20059;-77
2023/09/26 02:27:43;;;;;;;9.98;8.00;;;19.20;99.90;;;;;;4859641;29;20105;-79
2023/09/26 02:30:12;;;;;;;10.73;7.28;;;19.20;99.90;;;;;;4856834;29;20482;-78
2023/09/26 02:32:40;;;;;;;13.13;7.53;;;19.30;99.90;;;;;;4874157;29;20413;-82
2023/09/26 02:35:15;;;;;;;11.70;7.85;;;19.30;99.90;;;;;;4855413;29;20045;-79
2023/09/26 02:38:00;;;;;;;11.48;7.30;;;19.30;99.90;;;;;;4858319;29;20037;-77
2023/09/26 02:40:27;;;;;;;12.85;7.88;;;19.20;99.90;;;;;;4871844;29;20057;-80
2023/09/26 02:42:54;;;;;;;12.38;8.05;;;19.30;99.90;;;;;;4861078;29;20052;-78
2023/09/26 02:45:22;;;;;;;11.18;6.63;;;19.40;99.90;;;;;;4856776;29;20045;-78
2023/09/26 02:47:49;;;;;;;10.75;7.32;;;19.40;99.90;;;;;;4857502;29;20419;-78
2023/09/26 02:50:17;;;;;;;10.25;7.32;;;19.50;99.90;;;;;;4874954;29;20061;-78
2023/09/26 02:52:44;;;;;;;11.85;7.38;;;19.50;99.90;;;;;;4861062;29;20072;-79
2023/09/26 02:55:29;;;;;;;13.57;7.85;;;19.50;99.90;;;;;;4856042;29;20053;-77
2023/09/26 02:57:56;;;;;;;13.68;8.00;;;19.20;99.90;;;;;;4856390;29;20116;-78
2023/09/26 03:00:24;;;;;;;12.85;7.68;;;19.20;99.90;;;;;;4870806;29;20037;-77
2023/09/26 03:02:51;;;;;;;12.15;7.40;;;19.10;99.90;;;;;;4852922;29;20137;-78
2023/09/26 03:05:37;;;;;;;13.00;7.90;;;19.20;99.90;;;;;;4867657;29;20407;-78
2023/09/26 03:08:06;;;;;;;11.88;8.00;;;19.20;99.90;;;;;;4859889;29;20516;-78
2023/09/26 03:10:33;;;;;;;10.65;7.30;;;19.00;99.90;;;;;;4870669;29;20053;-78
2023/09/26 03:13:00;;;;;;;10.45;6.80;;;19.10;99.90;;;;;;4856466;29;20412;-79
2023/09/26 03:15:55;;;;;;;10.27;7.38;;;19.10;99.90;;;;;;4856234;29;20030;-79
2023/09/26 03:18:22;;;;;;;11.77;7.38;;;19.00;99.90;;;;;;4856748;29;20124;-77
2023/09/26 03:20:50;;;;;;;11.77;7.95;;;18.90;99.90;;;;;;4873599;29;20042;-77
2023/09/26 03:23:17;;;;;;;9.90;6.78;;;19.00;99.90;;;;;;4857784;29;20049;-77
2023/09/26 03:26:01;;;;;;;10.57;7.40;;;19.10;99.90;;;;;;4854888;29;20053;-77
2023/09/26 03:28:29;;;;;;;10.10;7.75;;;19.00;99.90;;;;;;4856779;29;20510;-77
2023/09/26 03:30:56;;;;;;;10.32;7.80;;;18.80;99.90;;;;;;4857542;29;20041;-79
2023/09/26 03:33:23;;;;;;;9.50;7.15;;;18.80;99.90;;;;;;4854608;29;20410;-77
2023/09/26 03:35:51;;;;;;;10.40;7.78;;;18.90;99.90;;;;;;4858159;29;20038;-78
2023/09/26 03:38:18;;;;;;;11.32;7.40;;;18.80;99.90;;;;;;4856811;29;20042;-75
2023/09/26 03:40:45;;;;;;;14.90;8.18;;;18.60;99.90;;;;;;4857596;29;20046;-76
2023/09/26 03:43:12;;;;;;;13.85;7.40;;;18.70;99.90;;;;;;4856120;29;20053;-76
2023/09/26 03:46:02;;;;;;;11.75;7.60;;;18.80;99.90;;;;;;4857419;29;20034;-77
2023/09/26 03:48:30;;;;;;;12.13;7.60;;;18.90;99.90;;;;;;4852896;29;20114;-76
2023/09/26 03:51:14;;;;;;;14.32;7.47;;;18.80;99.90;;;;;;4855191;29;20041;-77
2023/09/26 03:53:42;;;;;;;12.30;6.50;;;18.80;99.90;;;;;;4855685;29;20062;-80
2023/09/26 03:56:09;;;;;;;8.35;5.80;;;19.00;99.90;;;;;;4854552;29;20045;-78
2023/09/26 03:58:37;;;;;;;12.52;5.53;;;19.30;99.90;;;;;;4856450;29;20049;-76
2023/09/26 04:01:15;;;;;;;9.63;6.22;;;19.30;99.90;;;;;;4870932;29;20048;-78
2023/09/26 04:03:46;;;;;;;9.27;5.97;;;19.20;99.90;;;;;;4855928;29;20067;-79
2023/09/26 04:06:13;;;;;;;12.30;7.25;;;19.10;99.90;;;;;;4853890;29;20064;-77
2023/09/26 04:08:41;;;;;;;12.70;7.38;;;19.00;99.90;;;;;;4857564;29;20418;-78
2023/09/26 04:11:17;;;;;;;9.15;6.43;;;19.10;99.90;;;;;;4871863;29;20045;-77
2023/09/26 04:13:45;;;;;;;15.77;6.65;;;19.20;99.90;;;;;;4858666;29;20525;-77
2023/09/26 04:16:13;;;;;;;10.85;6.90;;;18.90;99.90;;;;;;4854755;29;20488;-79
2023/09/26 04:18:40;;;;;;;9.15;5.70;;;18.90;99.90;;;;;;4857612;29;20559;-79
2023/09/26 04:21:07;;;;;;;8.98;5.97;;;19.00;99.90;;;;;;4856841;29;20129;-78
2023/09/26 04:23:38;;;;;;;15.38;6.13;;;19.20;99.90;;;;;;4871528;29;20144;-78
2023/09/26 04:26:14;;;;;;;14.70;6.22;;;19.20;99.90;;;;;;4855744;29;20116;-79
2023/09/26 04:28:43;;;;;;;9.05;5.28;;;19.20;99.90;;;;;;4857370;29;20125;-79
2023/09/26 04:31:18;;;;;;;11.75;5.50;;;19.20;99.90;;;;;;4858115;29;20134;-75
2023/09/26 04:33:47;;;;;;;9.15;6.13;;;19.20;99.90;;;;;;4867393;29;20060;-78
2023/09/26 04:36:15;;;;;;;13.40;5.90;;;19.30;99.90;;;;;;4872177;29;20121;-77
2023/09/26 04:38:42;;;;;;;7.53;5.22;;;19.20;99.90;;;;;;4857263;29;20612;-80
2023/09/26 04:41:10;;;;;;;7.88;5.28;;;19.20;99.90;;;;;;4855964;29;20379;-81
2023/09/26 04:43:37;;;;;;;8.10;4.88;;;19.30;99.90;;;;;;4854595;29;20054;-78
2023/09/26 04:46:14;;;;;;;10.40;5.80;;;19.40;99.90;;;;;;4871245;29;20063;-79
2023/09/26 04:48:43;;;;;;;9.43;4.95;;;19.40;99.90;;;;;;4855199;29;20105;-79
2023/09/26 04:51:12;;;;;;;10.05;5.00;;;19.60;99.90;;;;;;4855545;29;20040;-79
2023/09/26 04:53:41;;;;;;;8.38;4.82;;;19.50;99.90;;;;;;4872878;29;20410;-81
2023/09/26 04:56:26;;;;;;;8.20;4.32;;;19.70;99.90;;;;;;4868638;29;20047;-80
2023/09/26 04:58:54;;;;;;;10.13;5.38;;;19.80;99.90;;;;;;4870264;29;20041;-77
2023/09/26 05:01:25;;;;;;;17.35;7.28;;;19.80;99.90;;;;;;4868279;29;20049;-78
2023/09/26 05:03:53;;;;;;;10.40;5.75;;;19.80;99.90;;;;;;4852922;29;20053;-78
2023/09/26 05:06:23;;;;;;;10.80;4.63;;;19.80;99.90;;;;;;4863720;29;20062;-76
2023/09/26 05:08:50;;;;;;;10.82;4.35;;;19.80;99.90;;;;;;4872920;29;20042;-76
2023/09/26 05:11:18;;;;;;;11.18;5.85;;;19.80;99.90;;;;;;4858140;29;20397;-77
2023/09/26 05:13:45;;;;;;;34.78;16.67;;;19.90;99.90;;;;;;4858374;29;20057;-76
2023/09/26 05:16:14;;;;;;;9.85;6.05;;;19.90;99.90;;;;;;4858523;29;20113;-76
2023/09/26 05:18:41;;;;;;;11.65;5.57;;;19.90;99.90;;;;;;4856642;29;20117;-79
2023/09/26 05:21:09;;;;;;;11.00;4.82;;;19.90;99.90;;;;;;4871480;29;20486;-77
2023/09/26 05:23:36;;;;;;;11.82;3.95;;;20.00;99.90;;;;;;4854038;29;20041;-77
2023/09/26 05:26:09;;;;;;;7.65;4.55;;;20.00;99.90;;;;;;4872558;29;20044;-79
2023/09/26 05:28:36;;;;;;;12.68;4.32;;;20.00;99.90;;;;;;4857023;29;20538;-79
2023/09/26 05:31:04;;;;;;;14.85;9.45;;;20.10;99.90;;;;;;4867922;29;20074;-79
2023/09/26 05:33:32;;;;;;;15.60;5.43;;;20.20;99.90;;;;;;4855875;29;20061;-77
2023/09/26 05:35:59;;;;;;;7.38;4.15;;;20.20;99.90;;;;;;4869903;29;20054;-76
2023/09/26 05:38:26;;;;;;;9.20;4.40;;;20.30;99.90;;;;;;4857679;29;20044;-78
2023/09/26 05:40:53;;;;;;;9.27;3.97;;;20.20;99.90;;;;;;4859376;29;20042;-77
2023/09/26 05:43:21;;;;;;;10.50;5.50;;;20.20;99.90;;;;;;4871990;29;20120;-76
2023/09/26 05:45:51;;;;;;;9.07;4.15;;;20.20;99.90;;;;;;4857865;29;20459;-76
2023/09/26 05:48:19;;;;;;;11.40;4.07;;;20.30;99.90;;;;;;4856768;29;20061;-80
2023/09/26 05:50:47;;;;;;;11.48;3.90;;;20.30;99.90;;;;;;4871707;29;20053;-80
2023/09/26 05:53:14;;;;;;;7.35;3.92;;;20.30;99.90;;;;;;4857274;29;20100;-78
2023/09/26 05:55:42;;;;;;;10.20;4.15;;;20.40;99.90;;;;;;4871026;29;20048;-78
2023/09/26 05:58:09;;;;;;;9.00;4.22;;;20.40;99.90;;;;;;4870737;29;20041;-80
2023/09/26 06:00:37;;;;;;;8.63;4.25;;;20.50;99.90;;;;;;4852327;29;20052;-81
2023/09/26 06:03:04;;;;;;;7.45;3.65;;;20.60;99.90;;;;;;4868611;29;20070;-79
2023/09/26 06:05:31;;;;;;;9.90;4.20;;;20.60;99.90;;;;;;4857252;29;20052;-77
2023/09/26 06:07:59;;;;;;;11.35;4.47;;;20.70;99.90;;;;;;4859315;29;20100;-79
2023/09/26 06:10:26;;;;;;;9.80;3.78;;;20.70;99.90;;;;;;4859034;29;20048;-78
2023/09/26 06:12:54;;;;;;;13.32;4.50;;;20.70;99.90;;;;;;4871158;29;21210;-75
2023/09/26 06:15:22;;;;;;;9.48;4.00;;;20.70;99.90;;;;;;4857241;29;20033;-79
2023/09/26 06:17:57;;;;;;;9.20;4.28;;;20.70;99.90;;;;;;4869923;29;20049;-80
2023/09/26 06:20:26;;;;;;;6.18;4.10;;;20.80;99.90;;;;;;4869292;29;20053;-79
2023/09/26 06:22:54;;;;;;;7.60;4.07;;;20.90;99.90;;;;;;4862355;29;20052;-76
2023/09/26 06:25:24;;;;;;;11.90;4.22;;;20.90;99.90;;;;;;4868609;29;20052;-79
2023/09/26 06:27:55;;;;;;;8.88;4.70;;;20.90;99.80;;;;;;4856523;29;20061;-75
2023/09/26 06:30:22;;;;;;;6.35;3.50;;;20.90;99.80;;;;;;4870559;29;20057;-76
2023/09/26 06:32:50;;;;;;;9.10;4.22;;;21.00;99.40;;;;;;4855848;29;20149;-76
2023/09/26 06:35:17;;;;;;;11.38;3.50;;;21.00;98.70;;;;;;4856682;29;20030;-75
2023/09/26 06:37:44;;;;;;;9.35;3.75;;;21.10;98.80;;;;;;4857858;29;20053;-77
2023/09/26 06:40:11;;;;;;;8.70;4.60;;;21.10;98.60;;;;;;4849989;29;20037;-79
2023/09/26 06:42:39;;;;;;;13.85;4.00;;;21.10;98.70;;;;;;4869713;29;20130;-78
2023/09/26 06:45:08;;;;;;;9.63;4.00;;;21.20;98.60;;;;;;4854306;29;20042;-76
2023/09/26 06:47:35;;;;;;;9.75;4.30;;;21.30;98.20;;;;;;4854921;29;20050;-76
2023/09/26 06:50:02;;;;;;;6.63;3.58;;;21.30;97.90;;;;;;4854679;29;20219;-78
2023/09/26 06:52:31;;;;;;;9.45;3.70;;;21.40;97.40;;;;;;4855426;29;20097;-77
2023/09/26 06:54:58;;;;;;;9.27;4.10;;;21.40;97.20;;;;;;4871583;29;20042;-79
2023/09/26 06:57:26;;;;;;;6.45;3.70;;;21.40;97.10;;;;;;4861334;29;20037;-78
2023/09/26 06:59:55;;;;;;;14.07;4.18;;;21.50;96.80;;;;;;4851539;29;20045;-77
2023/09/26 07:02:24;;;;;;;9.20;3.70;;;21.50;96.70;;;;;;4854492;29;20759;-79
2023/09/26 07:04:56;;;;;;;10.65;4.45;;;21.60;96.10;;;;;;4856458;29;20129;-80
2023/09/26 07:07:23;;;;;;;12.05;4.65;;;21.60;96.00;;;;;;4872757;29;20074;-81
2023/09/26 07:09:51;;;;;;;17.25;4.75;;;21.60;95.80;;;;;;4859983;29;20046;-80
2023/09/26 07:12:18;;;;;;;10.25;3.95;;;21.70;95.80;;;;;;4873937;29;20064;-78
2023/09/26 07:14:45;;;;;;;10.30;4.50;;;21.80;95.50;;;;;;4874919;29;20057;-77
2023/09/26 07:17:12;;;;;;;12.45;4.50;;;21.90;95.30;;;;;;4854024;29;20144;-77
2023/09/26 07:19:39;;;;;;;8.10;3.97;;;21.90;95.00;;;;;;4857032;29;20068;-77
2023/09/26 07:22:07;;;;;;;9.07;3.40;;;22.00;94.50;;;;;;4874357;29;20075;-76
2023/09/26 07:24:35;;;;;;;11.27;4.32;;;22.00;94.00;;;;;;4873517;29;20061;-77
2023/09/26 07:27:17;;;;;;;7.78;3.92;;;22.00;94.20;;;;;;4856835;29;20052;-76
2023/09/26 07:29:46;;;;;;;7.05;3.80;;;22.20;93.80;;;;;;4855666;29;20057;-76
2023/09/26 07:32:15;;;;;;;9.23;4.00;;;22.20;93.30;;;;;;4856292;29;20517;-76
2023/09/26 07:34:43;;;;;;;7.28;4.38;;;22.10;93.00;;;;;;4857795;29;20056;-79
2023/09/26 07:37:13;;;;;;;13.18;4.43;;;22.20;93.30;;;;;;4862539;29;20041;-77
2023/09/26 07:39:44;;;;;;;12.10;4.35;;;22.30;93.10;;;;;;4856522;29;20474;-74
2023/09/26 07:42:11;;;;;;;12.40;3.75;;;22.30;92.40;;;;;;4873124;29;20494;-78
2023/09/26 07:44:39;;;;;;;9.18;4.07;;;22.40;92.70;;;;;;4863675;29;20049;-79
2023/09/26 07:47:06;;;;;;;10.50;4.05;;;22.60;92.60;;;;;;4872059;29;20046;-77
2023/09/26 07:49:34;;;;;;;13.60;4.20;;;22.60;91.70;;;;;;4878688;29;20052;-79
2023/09/26 07:52:08;;;;;;;9.93;4.20;;;22.70;91.50;;;;;;4873517;29;20565;-80
2023/09/26 07:54:41;;;;;;;7.70;3.42;;;22.70;91.80;;;;;;4859069;29;20101;-81
2023/09/26 07:57:12;;;;;;;9.80;3.33;;;22.60;91.00;;;;;;4870797;29;20398;-81
2023/09/26 07:59:42;;;;;;;8.07;3.97;;;22.70;90.90;;;;;;4871755;29;20057;-80
2023/09/26 08:02:12;;;;;;;6.90;3.20;;;22.80;90.80;;;;;;4858410;29;20045;-80
2023/09/26 08:04:39;;;;;;;8.98;3.65;;;23.00;90.30;;;;;;4859592;29;20050;-79
2023/09/26 08:07:07;;;;;;;7.57;3.35;;;23.10;88.80;;;;;;4859429;29;20132;-79
2023/09/26 08:09:34;;;;;;;9.38;3.67;;;23.20;88.60;;;;;;4858404;29;20045;-81
2023/09/26 08:12:02;;;;;;;11.38;3.72;;;23.20;88.00;;;;;;4861569;29;20562;-80
2023/09/26 08:14:29;;;;;;;10.52;3.55;;;23.20;87.10;;;;;;4873080;29;20061;-81
2023/09/26 08:17:14;;;;;;;12.40;3.65;;;23.10;86.40;;;;;;4860163;29;20025;-78
2023/09/26 08:19:58;;;;;;;18.30;4.47;;;23.20;85.90;;;;;;4856518;29;20093;-82
2023/09/26 08:22:43;;;;;;;16.65;3.95;;;23.50;85.50;;;;;;4871261;29;20048;-78
2023/09/26 08:25:28;;;;;;;11.40;3.13;;;23.50;83.20;;;;;;4867139;29;20026;-82
2023/09/26 08:27:57;;;;;;;14.20;4.07;;;23.60;83.70;;;;;;4855024;29;20045;-80
2023/09/26 08:30:24;;;;;;;6.15;3.20;;;23.70;82.80;;;;;;4872208;29;20403;-79
2023/09/26 08:32:52;;;;;;;10.38;3.47;;;23.90;82.00;;;;;;4856223;29;20063;-81
2023/09/26 08:35:19;;;;;;;9.45;3.45;;;23.80;81.30;;;;;;4872525;29;20041;-79
2023/09/26 08:37:46;;;;;;;12.00;3.60;;;23.80;80.50;;;;;;4872621;29;20455;-81
2023/09/26 08:40:18;;;;;;;10.52;3.92;;;23.90;82.10;;;;;;4873273;29;20045;-80
2023/09/26 08:42:49;;;;;;;8.25;3.67;;;24.10;82.10;;;;;;4855848;29;20049;-82
2023/09/26 08:45:20;;;;;;;12.95;3.35;;;24.10;80.70;;;;;;4853740;29;20033;-75
2023/09/26 08:47:48;;;;;;;5.15;2.97;;;24.10;79.80;;;;;;4858219;29;20060;-79
2023/09/26 08:50:16;;;;;;;10.57;3.50;;;24.30;79.00;;;;;;4854313;29;20084;-79
2023/09/26 08:52:43;;;;;;;10.90;3.42;;;24.20;79.70;;;;;;4857344;29;20046;-79
2023/09/26 08:55:10;;;;;;;8.32;3.42;;;24.50;78.70;;;;;;4871874;29;20411;-78
2023/09/26 08:57:39;;;;;;;8.30;3.00;;;24.50;78.00;;;;;;4854327;29;20052;-78
2023/09/26 09:00:09;;;;;;;7.57;3.10;;;24.10;76.90;;;;;;4855935;29;20132;-79
2023/09/26 09:02:37;;;;;;;15.25;4.78;;;24.40;77.00;;;;;;4872059;29;20145;-75
2023/09/26 09:05:09;;;;;;;12.40;3.88;;;24.50;76.00;;;;;;4857608;29;20064;-77
2023/09/26 09:07:39;;;;;;;6.05;3.35;;;24.30;76.20;;;;;;4857621;29;20402;-80
2023/09/26 09:10:12;;;;;;;13.30;3.42;;;24.40;76.10;;;;;;4869129;29;20053;-76
2023/09/26 09:12:41;;;;;;;9.52;3.15;;;24.40;75.60;;;;;;4857802;29;20037;-78
2023/09/26 09:15:19;;;;;;;9.52;3.42;;;24.50;74.20;;;;;;4855238;29;20041;-77
2023/09/26 09:17:49;;;;;;;8.90;3.33;;;24.80;74.90;;;;;;4873476;29;20049;-80
2023/09/26 09:20:34;;;;;;;11.75;3.10;;;25.10;74.30;;;;;;4857906;29;20029;-78
2023/09/26 09:23:06;;;;;;;8.48;3.70;;;25.40;72.50;;;;;;4869562;29;20068;-78
2023/09/26 09:25:40;;;;;;;12.48;3.50;;;25.10;72.10;;;;;;4861575;29;20073;-77
2023/09/26 09:28:07;;;;;;;10.90;3.40;;;24.70;72.40;;;;;;4872067;29;20041;-78
2023/09/26 09:30:41;;;;;;;9.93;3.17;;;24.70;72.20;;;;;;4855726;29;20077;-77
2023/09/26 09:33:12;;;;;;;5.65;3.00;;;25.20;71.60;;;;;;4869987;29;20042;-77
2023/09/26 09:35:40;;;;;;;8.55;3.20;;;25.60;70.70;;;;;;4872118;29;20049;-77
2023/09/26 09:38:12;;;;;;;10.75;3.38;;;25.60;69.80;;;;;;4870043;29;20144;-79
2023/09/26 09:40:42;;;;;;;7.65;3.53;;;25.40;69.90;;;;;;4855272;29;20451;-77
2023/09/26 09:43:10;;;;;;;9.65;3.25;;;25.80;70.60;;;;;;4856727;29;20049;-78
2023/09/26 09:45:39;;;;;;;12.10;3.17;;;26.10;69.30;;;;;;4866073;29;20072;-82
2023/09/26 09:48:09;;;;;;;7.07;3.30;;;25.80;67.80;;;;;;4857015;29;20410;-77
2023/09/26 09:50:37;;;;;;;7.93;3.88;;;25.30;68.90;;;;;;4855612;29;20045;-80
2023/09/26 09:53:10;;;;;;;8.57;3.67;;;25.40;68.70;;;;;;4870559;29;20114;-79
2023/09/26 09:55:59;;;;;;;11.07;3.30;;;25.40;68.20;;;;;;4856258;29;20049;-77
2023/09/26 09:58:28;;;;;;;6.10;3.35;;;25.60;68.20;;;;;;4856548;29;20049;-79
2023/09/26 10:00:56;;;;;;;11.85;3.38;;;25.80;67.70;;;;;;4855877;29;20069;-79
2023/09/26 10:03:24;;;;;;;14.07;3.25;;;25.80;68.20;;;;;;4856450;29;20058;-77
2023/09/26 10:05:53;;;;;;;7.65;3.30;;;26.00;67.80;;;;;;4861378;29;20156;-80
2023/09/26 10:08:22;;;;;;;10.27;3.50;;;25.60;67.50;;;;;;4857748;29;20487;-86
2023/09/26 10:10:54;;;;;;;10.02;3.72;;;25.90;67.50;;;;;;4863442;29;20380;-81
2023/09/26 10:13:24;;;;;;;9.20;3.50;;;25.80;66.40;;;;;;4856797;29;20145;-81
2023/09/26 10:16:14;;;;;;;12.40;3.53;;;25.90;66.40;;;;;;4870546;29;20041;-82
2023/09/26 10:18:44;;;;;;;10.05;3.60;;;26.50;66.40;;;;;;4871704;29;20056;-83
2023/09/26 10:21:25;;;;;;;9.77;3.20;;;26.40;65.70;;;;;;4873890;29;20486;-81
2023/09/26 10:24:19;;;;;;;6.65;3.30;;;26.30;65.30;;;;;;4871747;29;20049;-83
2023/09/26 10:26:48;;;;;;;8.88;3.58;;;26.50;65.20;;;;;;4853865;29;20413;-83
2023/09/26 10:29:23;;;;;;;12.17;3.30;;;26.50;64.70;;;;;;4857519;29;20053;-83
2023/09/26 10:31:55;;;;;;;9.45;3.50;;;26.60;65.20;;;;;;4855174;29;20045;-79
2023/09/26 10:34:46;;;;;;;7.15;2.75;;;26.50;63.90;;;;;;4869443;29;20041;-82
2023/09/26 10:37:33;;;;;;;9.30;3.30;;;27.00;64.60;;;;;;4854123;29;20054;-82
2023/09/26 10:40:00;;;;;;;10.52;2.95;;;27.10;63.70;;;;;;4870018;29;20038;-80
2023/09/26 10:42:28;;;;;;;7.85;3.00;;;27.30;62.80;;;;;;4854347;29;20390;-78
2023/09/26 10:44:59;;;;;;;6.03;2.75;;;27.00;62.70;;;;;;4853643;29;20042;-77
2023/09/26 10:47:26;;;;;;;8.32;3.10;;;27.10;62.90;;;;;;4860114;29;20051;-76
2023/09/26 10:50:14;;;;;;;11.88;2.90;;;27.50;62.30;;;;;;4858770;29;20030;-81
2023/09/26 10:52:49;;;;;;;8.20;3.53;;;27.00;62.30;;;;;;4867678;29;20402;-79
2023/09/26 10:55:22;;;;;;;11.98;2.97;;;27.10;62.20;;;;;;4860891;29;20053;-81
2023/09/26 10:57:52;;;;;;;11.57;3.10;;;27.30;62.00;;;;;;4857399;29;20072;-82
2023/09/26 11:00:19;;;;;;;12.77;3.05;;;27.50;61.90;;;;;;4875053;29;20053;-80
2023/09/26 11:02:50;;;;;;;7.82;3.10;;;27.80;61.30;;;;;;4875225;29;20168;-81
2023/09/26 11:05:19;;;;;;;7.55;3.00;;;28.00;60.60;;;;;;4870778;29;20452;-81
2023/09/26 11:07:47;;;;;;;7.82;3.17;;;28.00;60.90;;;;;;4873438;29;20454;-85
2023/09/26 11:10:15;;;;;;;8.75;3.17;;;27.70;60.30;;;;;;4859305;29;20076;-82
2023/09/26 11:13:00;;;;;;;13.20;3.75;;;27.50;60.40;;;;;;4859934;29;20038;-80
2023/09/26 11:15:45;;;;;;;14.07;3.42;;;27.70;60.30;;;;;;4858892;29;20037;-80
2023/09/26 11:18:12;;;;;;;8.40;2.85;;;27.80;59.90;;;;;;4870833;29;20041;-77
2023/09/26 11:20:40;;;;;;;11.63;2.97;;;28.10;59.50;;;;;;4860562;29;20052;-81
2023/09/26 11:23:40;;;;;;;11.65;3.33;;;28.00;59.20;;;;;;4856545;29;20413;-80
2023/09/26 11:26:08;;;;;;;9.38;3.03;;;28.60;59.30;;;;;;4871434;29;20121;-79
2023/09/26 11:28:36;;;;;;;8.68;3.20;;;29.10;58.40;;;;;;4860126;29;20076;-78
2023/09/26 11:31:04;;;;;;;10.48;4.95;;;28.90;57.50;;;;;;4860115;29;20648;-80
2023/09/26 11:33:32;;;;;;;10.30;3.17;;;28.60;58.10;;;;;;4860036;29;20057;-78
2023/09/26 11:36:01;;;;;;;8.63;2.70;;;28.10;58.10;;;;;;4860712;29;20049;-81
2023/09/26 11:38:29;;;;;;;8.85;3.03;;;27.80;58.30;;;;;;4871476;29;20061;-80
2023/09/26 11:40:57;;;;;;;8.77;2.83;;;28.60;57.80;;;;;;4855116;29;20049;-79
2023/09/26 11:43:25;;;;;;;7.03;3.22;;;28.00;57.90;;;;;;4856222;29;20133;-82
2023/09/26 11:46:04;;;;;;;7.55;3.05;;;28.10;57.90;;;;;;4873677;29;20048;-82
2023/09/26 11:48:34;;;;;;;10.05;2.90;;;28.50;57.20;;;;;;4850465;29;20772;-81
2023/09/26 11:51:03;;;;;;;9.77;3.67;;;28.60;57.10;;;;;;4853808;29;20327;-81
2023/09/26 11:53:30;;;;;;;9.73;3.20;;;29.20;57.60;;;;;;4872700;29;20395;-81
2023/09/26 11:55:58;;;;;;;11.88;3.45;;;29.60;56.80;;;;;;4874570;29;20077;-80
2023/09/26 11:58:26;;;;;;;12.23;3.22;;;29.60;56.10;;;;;;4855765;29;20048;-80
2023/09/26 12:00:54;;;;;;;7.20;3.38;;;30.20;55.50;;;;;;4856151;29;20049;-80
2023/09/26 12:03:22;;;;;;;7.68;2.95;;;30.60;55.60;;;;;;4873290;29;20057;-82
2023/09/26 12:05:49;;;;;;;11.52;3.10;;;30.60;54.80;;;;;;4874357;29;20065;-79
2023/09/26 12:08:16;;;;;;;16.10;3.03;;;30.60;53.70;;;;;;4859364;29;20085;-81
2023/09/26 12:10:44;;;;;;;9.85;3.03;;;30.70;55.00;;;;;;4856839;29;20406;-82
2023/09/26 12:13:11;;;;;;;8.00;3.08;;;30.70;54.40;;;;;;4872097;29;20068;-81
2023/09/26 12:15:39;;;;;;;8.93;2.92;;;30.90;55.00;;;;;;4858784;29;20049;-82
2023/09/26 12:18:06;;;;;;;8.98;2.95;;;31.10;54.70;;;;;;4854931;29;20081;-80
2023/09/26 12:20:33;;;;;;;9.25;3.03;;;31.30;53.90;;;;;;4870138;29;20545;-81
2023/09/26 12:23:02;;;;;;;5.75;2.28;;;31.40;52.80;;;;;;4858280;29;20049;-81
2023/09/26 12:25:30;;;;;;;6.53;2.88;;;31.40;52.70;;;;;;4856375;29;20414;-82
2023/09/26 12:27:57;;;;;;;10.07;3.60;;;31.40;52.70;;;;;;4856480;29;20397;-82
2023/09/26 12:30:25;;;;;;;11.05;3.42;;;31.10;52.50;;;;;;4853775;29;20054;-80
2023/09/26 12:32:52;;;;;;;7.40;3.28;;;30.60;52.60;;;;;;4858105;29;20105;-83
2023/09/26 12:35:22;;;;;;;10.57;2.90;;;30.40;53.90;;;;;;4872594;29;20071;-84
2023/09/26 12:37:49;;;;;;;13.30;3.80;;;29.60;52.80;;;;;;4859583;29;20052;-82
2023/09/26 12:40:17;;;;;;;10.52;2.75;;;29.50;53.60;;;;;;4856971;29;20443;-82
2023/09/26 12:42:46;;;;;;;8.18;2.72;;;29.70;53.90;;;;;;4841212;29;20454;-83
2023/09/26 12:45:14;;;;;;;8.52;3.00;;;30.40;54.30;;;;;;4856921;29;20041;-83
2023/09/26 12:47:41;;;;;;;10.32;4.40;;;30.90;53.90;;;;;;4859139;29;20053;-81
2023/09/26 12:50:08;;;;;;;10.85;3.10;;;31.30;52.90;;;;;;4866826;29;20073;-82
2023/09/26 12:52:39;;;;;;;10.93;3.10;;;31.40;51.40;;;;;;4868819;29;20045;-81
2023/09/26 12:55:08;;;;;;;10.27;2.88;;;31.10;51.60;;;;;;4868597;29;20049;-80